• Join FlightAware (Why Join?)
  • Login
  • US Flag 
04:40PM EDT


 

Airport Tracker/Info


-or-


 

Live Flight TrackerFlight Track Log ✈ CCA4394 ✈ 12-Feb-2014 ✈ ZGGG / CAN - ZUCK / CKG

Flight Track Log - Related Links

Times and Time Zones

All times are in EST time to prevent confusion due to time zone crossing. See the CCA4394 flight status page for this flight to view local times or setup timezone preferences in your user account.

Time Position Orientation Groundspeed Altitude Reporting Facility
EST Latitude Longitude Course Direction KTS MPH feet Rate Location/Type
10:08PM 23.8898 112.8113 318° Northwest  Level Estimated
10:09PM 23.9725 112.7297 318° Northwest  Level Estimated
10:10PM 24.0552 112.6480 318° Northwest  Level Estimated
10:11PM 24.1379 112.5662 318° Northwest  Level Estimated
10:12PM 24.2205 112.4843 318° Northwest  Level Estimated
10:13PM 24.3030 112.4023 318° Northwest  Level Estimated
10:14PM 24.3856 112.3201 318° Northwest  Level Estimated
10:15PM 24.4680 112.2379 318° Northwest  Level Estimated
10:16PM 24.5505 112.1555 318° Northwest  Level Estimated
10:17PM 24.6329 112.0731 318° Northwest  Level Estimated
10:18PM 24.7152 111.9905 318° Northwest  Level Estimated
10:19PM 24.7975 111.9078 318° Northwest  Level Estimated
10:20PM 24.8797 111.8251 318° Northwest  Level Estimated
10:21PM 24.9620 111.7422 318° Northwest  Level Estimated
10:22PM 25.0441 111.6592 318° Northwest  Level Estimated
10:23PM 25.1262 111.5760 318° Northwest  Level Estimated
10:24PM 25.2083 111.4928 317° Northwest  Level Estimated
10:25PM 25.2903 111.4095 317° Northwest  Level Estimated
10:26PM 25.3723 111.3260 317° Northwest  Level Estimated
10:27PM 25.4542 111.2424 317° Northwest  Level Estimated
10:28PM 25.5361 111.1588 317° Northwest  Level Estimated
10:29PM 25.6180 111.0750 317° Northwest  Level Estimated
10:30PM 25.6997 110.9911 317° Northwest  Level Estimated
10:31PM 25.7815 110.9070 317° Northwest  Level Estimated
10:32PM 25.8632 110.8229 317° Northwest  Level Estimated
10:33PM 25.9448 110.7386 317° Northwest  Level Estimated
10:34PM 26.0264 110.6543 317° Northwest  Level Estimated
10:35PM 26.1079 110.5698 317° Northwest  Level Estimated
10:36PM 26.1894 110.4852 317° Northwest  Level Estimated
10:37PM 26.2709 110.4004 317° Northwest  Level Estimated
10:38PM 26.3523 110.3156 317° Northwest  Level Estimated
10:39PM 26.4336 110.2306 317° Northwest  Level Estimated
10:40PM 26.5149 110.1455 317° Northwest  Level Estimated
10:41PM 26.5961 110.0603 317° Northwest  Level Estimated
10:42PM 26.6773 109.9750 317° Northwest  Level Estimated
10:43PM 26.7585 109.8895 317° Northwest  Level Estimated
10:44PM 26.8396 109.8040 317° Northwest  Level Estimated
10:45PM 26.9206 109.7183 317° Northwest  Level Estimated
10:46PM 27.0016 109.6324 317° Northwest  Level Estimated
10:47PM 27.0825 109.5465 317° Northwest  Level Estimated
10:48PM 27.1634 109.4604 317° Northwest  Level Estimated
10:49PM 27.2442 109.3743 317° Northwest  Level Estimated
10:50PM 27.3250 109.2879 316° Northwest  Level Estimated
10:51PM 27.4057 109.2015 316° Northwest  Level Estimated
10:52PM 27.4864 109.1149 316° Northwest  Level Estimated
10:53PM 27.5670 109.0282 316° Northwest  Level Estimated
10:54PM 27.6476 108.9414 316° Northwest  Level Estimated
10:55PM 27.7281 108.8545 316° Northwest  Level Estimated
10:56PM 27.8085 108.7674 316° Northwest  Level Estimated
10:57PM 27.8889 108.6802 316° Northwest  Level Estimated
10:58PM 27.9693 108.5928 316° Northwest  Level Estimated
10:59PM 28.0496 108.5054 316° Northwest  Level Estimated
11:00PM 28.1298 108.4178 316° Northwest  Level Estimated
11:01PM 28.2100 108.3300 316° Northwest  Level Estimated
11:02PM 28.2901 108.2422 316° Northwest  Level Estimated
11:03PM 28.3702 108.1542 316° Northwest  Level Estimated
11:04PM 28.4502 108.0661 316° Northwest  Level Estimated
11:05PM 28.5301 107.9778 316° Northwest  Level Estimated
11:06PM 28.6100 107.8894 316° Northwest  Level Estimated
11:07PM 28.6899 107.8009 316° Northwest  Level Estimated
11:08PM 28.7696 107.7122 316° Northwest  Level Estimated
11:09PM 28.8494 107.6234 316° Northwest  Level Estimated
11:10PM 28.9290 107.5345 316° Northwest  Level Estimated
11:11PM 29.0086 107.4454 316° Northwest  Level Estimated
11:12PM 29.0882 107.3562 316° Northwest  Level Estimated
11:13PM 29.1677 107.2669 316° Northwest  Level Estimated
11:14PM 29.2471 107.1774 316° Northwest  Level Estimated
11:15PM 29.3265 107.0878 315° West  Level Estimated
11:16PM 29.4058 106.9980 315° West  Level Estimated
11:17PM 29.4850 106.9081 315° West  Level Estimated
11:18PM 29.5642 106.8181 315° West  Level Estimated
11:19PM 29.6433 106.7279 315° West  Level Estimated
11:20PM 29.7194 106.6410 315° West  Level Estimated
11:21PM 29.7194 106.6410 60° Northeast  Level Estimated
11:22PM 29.7194 106.6410 60° Northeast  Level Estimated
11:23PM 29.7194 106.6410 60° Northeast  Level Estimated
11:24PM 29.7194 106.6410 60° Northeast  Level Estimated
11:25PM 29.7194 106.6410 60° Northeast  Level Estimated
11:26PM 29.7194 106.6410 60° Northeast  Level Estimated
11:27PM 29.7194 106.6410 60° Northeast  Level Estimated
11:28PM 29.7194 106.6410 60° Northeast  Level Estimated
11:29PM 29.7194 106.6410 60° Northeast  Level Estimated
11:30PM 29.7194 106.6410 60° Northeast  Level Estimated
11:31PM 29.7194 106.6410 60° Northeast  Level Estimated
11:32PM 29.7194 106.6410 60° Northeast  Level Estimated
11:33PM 29.7194 106.6410 60° Northeast  Level Estimated
11:34PM 29.7194 106.6410 60° Northeast  Level Estimated
11:35PM 29.7194 106.6410 60° Northeast  Level Estimated
11:36PM 29.7194 106.6410 60° Northeast  Level Estimated